Time;durP1;ratioP1;P1;durP2;ratioP2;P2;SDS_P1;SDS_P2;PMS_P1;PMS_P2;Temp;Humidity;BMP_temperature;BMP_pressure;BME280_temperature;BME280_humidity;BME280_pressure;Samples;Min_cycle;Max_cycle;Signal;HPM_P1;HPM_P2
2022/10/21 00:01:04;;;;;;;36.30;33.50;;;;;;;15.98;74.07;100691.72;4976048;28;20114;-75
2022/10/21 00:03:30;;;;;;;39.17;35.17;;;;;;;15.98;74.19;100685.47;4976183;28;20463;-75
2022/10/21 00:05:55;;;;;;;35.55;32.53;;;;;;;15.98;74.35;100677.28;4976463;28;20119;-75
2022/10/21 00:08:21;;;;;;;34.95;31.98;;;;;;;15.97;74.67;100673.72;4976187;28;20027;-77
2022/10/21 00:10:51;;;;;;;34.38;32.08;;;;;;;15.97;74.40;100673.72;4976131;28;20027;-75
2022/10/21 00:13:17;;;;;;;34.42;32.10;;;;;;;15.96;74.42;100665.84;4976830;28;20336;-75
2022/10/21 00:15:42;;;;;;;36.13;33.13;;;;;;;15.95;74.49;100665.03;4976233;28;20486;-75
2022/10/21 00:18:08;;;;;;;33.88;31.55;;;;;;;15.96;74.39;100657.69;4975952;28;20051;-75
2022/10/21 00:20:33;;;;;;;37.20;34.15;;;;;;;15.95;74.40;100654.16;4976662;28;20062;-76
2022/10/21 00:22:58;;;;;;;34.63;32.15;;;;;;;15.94;74.40;100652.50;4974642;28;20471;-75
2022/10/21 00:25:26;;;;;;;36.53;32.92;;;;;;;15.94;74.66;100657.94;4975799;28;20431;-76
2022/10/21 00:27:52;;;;;;;35.55;32.35;;;;;;;15.94;74.36;100655.22;4975890;28;20035;-75
2022/10/21 00:30:17;;;;;;;33.78;31.15;;;;;;;15.94;74.26;100655.22;4976039;28;20042;-75
2022/10/21 00:32:42;;;;;;;35.10;32.38;;;;;;;15.92;74.53;100641.06;4975892;28;20027;-76
2022/10/21 00:35:08;;;;;;;35.53;32.47;;;;;;;15.92;74.69;100649.22;4976022;28;20058;-76
2022/10/21 00:37:33;;;;;;;36.08;32.70;;;;;;;15.92;74.38;100649.22;4975574;28;20035;-76
2022/10/21 00:39:58;;;;;;;33.28;30.75;;;;;;;15.92;74.54;100648.44;4974467;28;20064;-75
2022/10/21 00:42:32;;;;;;;35.35;31.95;;;;;;;15.91;74.83;100646.81;4975524;28;20042;-77
2022/10/21 00:45:17;;;;;;;35.72;32.70;;;;;;;15.91;74.63;100650.34;4975512;28;20054;-76
2022/10/21 00:47:48;;;;;;;32.50;30.15;;;;;;;15.90;74.63;100658.78;4975813;28;20057;-76
2022/10/21 00:50:35;;;;;;;34.28;31.45;;;;;;;15.90;74.61;100650.63;4975489;28;20033;-76
2022/10/21 00:53:02;;;;;;;35.05;32.25;;;;;;;15.88;74.50;100645.47;4975906;28;20023;-77
2022/10/21 00:55:32;;;;;;;35.55;32.65;;;;;;;15.89;74.41;100649.00;4975310;28;20482;-76
2022/10/21 00:57:59;;;;;;;35.85;32.72;;;;;;;15.89;74.46;100638.09;4975041;28;20077;-77
2022/10/21 01:00:24;;;;;;;34.65;32.00;;;;;;;15.88;74.84;100637.28;4975152;28;20379;-79
2022/10/21 01:02:49;;;;;;;33.60;31.15;;;;;;;15.88;74.72;100639.22;4975487;28;20474;-75
2022/10/21 01:05:16;;;;;;;35.30;32.33;;;;;;;15.89;74.95;100635.38;4975403;28;20121;-75
2022/10/21 01:07:41;;;;;;;35.70;32.83;;;;;;;15.87;74.97;100632.13;4975061;28;20475;-75
2022/10/21 01:10:07;;;;;;;33.95;31.45;;;;;;;15.87;74.49;100635.66;4975100;28;20038;-76
2022/10/21 01:12:43;;;;;;;34.97;32.15;;;;;;;15.88;74.41;100633.75;4975685;28;20436;-75
2022/10/21 01:15:20;;;;;;;33.53;30.85;;;;;;;15.87;74.95;100624.75;4975326;28;20364;-76
2022/10/21 01:18:06;;;;;;;34.25;31.85;;;;;;;15.87;74.75;100621.22;4975009;28;20030;-75
2022/10/21 01:20:43;;;;;;;36.13;32.88;;;;;;;15.86;74.77;100619.59;4974920;28;20054;-77
2022/10/21 01:23:42;;;;;;;33.90;31.02;;;;;;;15.84;74.85;100611.69;4974906;28;20463;-77
2022/10/21 01:26:25;;;;;;;31.85;29.15;;;;;;;15.84;74.52;100611.69;4975116;28;20029;-77
2022/10/21 01:29:03;;;;;;;31.80;29.40;;;;;;;15.83;74.48;100607.34;4974014;28;20430;-77
2022/10/21 01:31:28;;;;;;;32.60;30.23;;;;;;;15.83;74.57;100601.09;4975126;28;20031;-79
2022/10/21 01:34:06;;;;;;;30.55;28.63;;;;;;;15.82;74.62;100594.00;4975326;28;20379;-76
2022/10/21 01:36:55;;;;;;;33.75;30.77;;;;;;;15.82;74.38;100594.00;4975289;28;20444;-77
2022/10/21 01:39:27;;;;;;;33.50;30.58;;;;;;;15.81;74.57;100586.94;4974889;28;20387;-76
2022/10/21 01:42:33;;;;;;;31.42;29.13;;;;;;;15.82;74.10;100580.41;4975191;28;20094;-76
2022/10/21 01:45:09;;;;;;;30.48;28.45;;;;;;;15.80;74.17;100577.97;4974825;28;20382;-76
2022/10/21 01:47:46;;;;;;;33.40;30.95;;;;;;;15.79;74.38;100579.84;4974665;28;20082;-77
2022/10/21 01:50:20;;;;;;;32.88;30.45;;;;;;;15.79;74.58;100584.50;4975195;28;20023;-76
2022/10/21 01:52:50;;;;;;;34.13;31.55;;;;;;;15.79;74.42;100592.66;4973762;28;20038;-77
2022/10/21 01:55:20;;;;;;;32.60;29.63;;;;;;;15.78;74.16;100585.59;4974605;28;20066;-78
2022/10/21 01:57:51;;;;;;;32.95;30.65;;;;;;;15.79;74.13;100584.50;4974537;28;20110;-77
2022/10/21 02:00:20;;;;;;;33.03;30.73;;;;;;;15.78;74.56;100577.44;4975043;28;20034;-77
2022/10/21 02:02:48;;;;;;;35.42;32.80;;;;;;;15.78;74.26;100577.44;4973172;28;20031;-77
2022/10/21 02:05:24;;;;;;;31.45;29.30;;;;;;;15.78;74.53;100577.44;4974484;28;20023;-77
2022/10/21 02:07:50;;;;;;;33.00;30.60;;;;;;;15.77;74.54;100576.63;4974588;28;20030;-76
2022/10/21 02:10:17;;;;;;;32.80;30.25;;;;;;;15.75;74.71;100567.91;4957400;28;20064;-76
2022/10/21 02:12:46;;;;;;;33.03;30.58;;;;;;;15.76;74.42;100566.00;4974105;28;20069;-76
2022/10/21 02:15:13;;;;;;;31.33;28.95;;;;;;;15.75;74.25;100550.78;4974975;28;20093;-76
2022/10/21 02:17:43;;;;;;;34.25;31.52;;;;;;;15.75;74.07;100558.94;4974054;28;20387;-75
2022/10/21 02:20:11;;;;;;;30.85;28.02;;;;;;;15.74;74.55;100544.47;4974575;28;20070;-78
2022/10/21 02:22:39;;;;;;;33.65;30.40;;;;;;;15.73;74.44;100542.06;4974318;28;20034;-77
2022/10/21 02:25:15;;;;;;;31.13;28.23;;;;;;;15.72;74.34;100551.31;4974330;28;20035;-77
2022/10/21 02:27:41;;;;;;;31.00;28.90;;;;;;;15.73;74.16;100550.22;4974302;28;20035;-75
2022/10/21 02:30:07;;;;;;;30.13;28.13;;;;;;;15.71;73.96;100561.38;4974599;28;20046;-75
2022/10/21 02:32:35;;;;;;;30.15;28.13;;;;;;;15.71;73.94;100550.50;4973808;28;20399;-78
2022/10/21 02:35:22;;;;;;;31.92;29.63;;;;;;;15.70;74.00;100550.78;4974346;28;20185;-77
2022/10/21 02:38:13;;;;;;;32.72;30.10;;;;;;;15.71;73.90;100552.41;4974517;28;20042;-75
2022/10/21 02:41:02;;;;;;;32.22;29.67;;;;;;;15.69;73.60;100546.41;4974650;28;20030;-76
2022/10/21 02:43:38;;;;;;;33.45;30.45;;;;;;;15.67;73.79;100543.13;4977301;28;20041;-77
2022/10/21 02:46:12;;;;;;;31.42;29.33;;;;;;;15.67;73.55;100543.13;4976762;28;20061;-76
2022/10/21 02:48:41;;;;;;;32.38;29.77;;;;;;;15.66;73.92;100536.06;4977834;28;20058;-77
2022/10/21 02:51:06;;;;;;;;;;;;;;;15.65;73.56;100529.81;4978050;28;20034;-76
2022/10/21 02:53:33;;;;;;;31.50;29.08;;;;;;;15.64;73.60;100530.91;4977311;28;19910;-76
2022/10/21 02:55:59;;;;;;;33.20;30.55;;;;;;;15.63;73.51;100525.75;4977191;28;20050;-77
2022/10/21 02:58:24;;;;;;;31.98;29.58;;;;;;;15.63;73.36;100523.84;4977488;28;20364;-77
2022/10/21 03:00:50;;;;;;;33.17;30.67;;;;;;;15.62;73.19;100526.84;4977414;28;20085;-75
2022/10/21 03:03:15;;;;;;;33.75;30.58;;;;;;;15.61;73.18;100528.75;4977607;28;20041;-76
2022/10/21 03:05:40;;;;;;;32.30;30.02;;;;;;;15.60;73.40;100524.41;4977287;28;20030;-77
2022/10/21 03:08:06;;;;;;;32.88;30.15;;;;;;;15.60;73.67;100527.13;4977369;28;20035;-77
2022/10/21 03:10:31;;;;;;;31.35;29.35;;;;;;;15.58;73.19;100529.31;4977913;28;20484;-77
2022/10/21 03:12:56;;;;;;;31.67;29.55;;;;;;;15.58;73.30;100529.31;4976411;28;20074;-76
2022/10/21 03:15:22;;;;;;;31.85;29.65;;;;;;;15.58;73.66;100529.31;4976422;28;20035;-77
2022/10/21 03:17:47;;;;;;;31.23;28.92;;;;;;;15.58;73.51;100521.97;4977141;28;20134;-78
2022/10/21 03:20:13;;;;;;;30.40;28.33;;;;;;;15.57;73.56;100536.69;4977716;28;20442;-76
2022/10/21 03:22:38;;;;;;;31.38;29.08;;;;;;;15.56;73.61;100535.03;4976663;28;20034;-75
2022/10/21 03:25:05;;;;;;;31.33;29.20;;;;;;;15.55;73.59;100530.69;4976935;28;20027;-78
2022/10/21 03:27:30;;;;;;;31.65;29.65;;;;;;;15.55;73.22;100533.41;4977461;28;20074;-77
2022/10/21 03:29:55;;;;;;;31.70;28.80;;;;;;;15.53;73.26;100524.72;4976228;28;20121;-76
2022/10/21 03:32:21;;;;;;;30.75;28.55;;;;;;;15.54;73.49;100520.06;4976831;28;20046;-76
2022/10/21 03:34:46;;;;;;;32.95;30.15;;;;;;;15.53;73.47;100516.53;4976837;28;20045;-76
2022/10/21 03:37:12;;;;;;;30.85;28.95;;;;;;;15.52;73.51;100509.47;4977109;28;20063;-76
2022/10/21 03:39:37;;;;;;;32.20;29.65;;;;;;;15.52;73.30;100516.81;4976211;28;20035;-76
2022/10/21 03:42:03;;;;;;;30.50;28.60;;;;;;;15.52;73.07;100511.38;4976637;28;20166;-76
2022/10/21 03:44:28;;;;;;;32.05;29.85;;;;;;;15.50;73.42;100517.13;4976798;28;20426;-76
2022/10/21 03:46:53;;;;;;;31.90;29.70;;;;;;;15.50;72.98;100510.88;4976330;28;20041;-77
2022/10/21 03:49:19;;;;;;;30.10;28.13;;;;;;;15.49;73.07;100515.47;4975568;28;20062;-75
2022/10/21 03:51:44;;;;;;;31.30;29.10;;;;;;;15.48;73.29;100522.03;4975687;28;20038;-76
2022/10/21 03:54:09;;;;;;;28.77;26.77;;;;;;;15.47;73.05;100514.13;4976581;28;20466;-77
2022/10/21 03:56:35;;;;;;;30.35;28.23;;;;;;;15.47;73.51;100512.25;4976731;28;20110;-76
2022/10/21 03:59:00;;;;;;;30.27;28.27;;;;;;;15.46;72.90;100512.50;4976308;28;20034;-76
2022/10/21 04:01:26;;;;;;;30.25;28.15;;;;;;;15.45;73.13;100516.34;4975145;28;20109;-77
2022/10/21 04:03:51;;;;;;;31.90;29.77;;;;;;;15.44;72.99;100520.94;4976177;28;20463;-75
2022/10/21 04:06:17;;;;;;;29.95;27.95;;;;;;;15.43;73.17;100522.03;4976181;28;20034;-76
2022/10/21 04:08:42;;;;;;;29.42;27.38;;;;;;;15.43;73.14;100519.31;4975892;28;20034;-78
2022/10/21 04:11:07;;;;;;;29.45;27.67;;;;;;;15.41;73.03;100524.22;4975936;28;20522;-78
2022/10/21 04:13:33;;;;;;;29.27;27.48;;;;;;;15.41;72.96;100532.41;4976133;28;20027;-76
2022/10/21 04:16:01;;;;;;;29.65;27.70;;;;;;;15.39;72.71;100531.84;4975971;28;20391;-76
2022/10/21 04:18:27;;;;;;;29.92;27.40;;;;;;;15.39;73.20;100531.03;4976085;28;20093;-77
2022/10/21 04:20:52;;;;;;;29.45;27.58;;;;;;;15.37;73.08;100534.03;4976468;28;20035;-77
2022/10/21 04:23:18;;;;;;;29.80;27.75;;;;;;;15.38;72.97;100532.16;4975960;28;20089;-77
2022/10/21 04:25:44;;;;;;;29.00;27.20;;;;;;;15.36;72.72;100525.06;4976305;28;20038;-78
2022/10/21 04:28:09;;;;;;;29.15;27.35;;;;;;;15.35;72.75;100523.44;4975605;28;20527;-78
2022/10/21 04:30:35;;;;;;;29.00;27.33;;;;;;;15.36;72.80;100526.97;4976142;28;20422;-77
2022/10/21 04:33:00;;;;;;;31.08;28.95;;;;;;;15.34;73.00;100531.88;4975692;28;20039;-75
2022/10/21 04:35:26;;;;;;;29.05;27.20;;;;;;;15.34;72.93;100523.72;4975760;28;20045;-78
2022/10/21 04:37:51;;;;;;;30.10;28.30;;;;;;;15.33;72.58;100520.19;4975869;28;20042;-76
2022/10/21 04:40:16;;;;;;;30.25;28.25;;;;;;;15.32;72.84;100525.91;4974006;28;20130;-78
2022/10/21 04:42:46;;;;;;;30.45;28.02;;;;;;;15.32;72.58;100531.34;4975377;28;20114;-75
2022/10/21 04:45:12;;;;;;;29.38;27.65;;;;;;;15.30;72.85;100533.56;4975792;28;20047;-75
2022/10/21 04:47:37;;;;;;;28.08;26.48;;;;;;;15.30;72.89;100533.56;4975716;28;20356;-75
2022/10/21 04:50:02;;;;;;;29.65;27.73;;;;;;;15.28;72.94;100536.53;4975445;28;20023;-75
2022/10/21 04:52:28;;;;;;;29.65;27.70;;;;;;;15.29;72.80;100531.91;4975365;28;20374;-76
2022/10/21 04:54:53;;;;;;;30.08;28.38;;;;;;;15.29;72.56;100537.34;4975045;28;20031;-77
2022/10/21 04:57:19;;;;;;;29.92;28.02;;;;;;;15.27;72.49;100531.38;4975668;28;20027;-76
2022/10/21 04:59:44;;;;;;;28.02;26.30;;;;;;;15.26;72.67;100527.03;4975336;28;20528;-76
2022/10/21 05:02:10;;;;;;;28.45;26.58;;;;;;;15.25;72.51;100536.31;4975657;28;20123;-76
2022/10/21 05:04:35;;;;;;;28.67;26.70;;;;;;;15.26;72.46;100532.47;4974479;28;20043;-76
2022/10/21 05:07:00;;;;;;;31.58;29.13;;;;;;;15.24;72.91;100530.03;4975629;28;20070;-76
2022/10/21 05:09:26;;;;;;;27.88;26.10;;;;;;;15.24;72.67;100526.50;4975198;28;20039;-76
2022/10/21 05:11:51;;;;;;;30.35;28.45;;;;;;;15.24;72.60;100534.66;4975039;28;20031;-76
2022/10/21 05:14:16;;;;;;;28.88;26.90;;;;;;;15.22;72.79;100526.78;4975115;28;20479;-76
2022/10/21 05:16:42;;;;;;;28.45;26.58;;;;;;;15.22;72.61;100525.94;4975316;28;20031;-75
2022/10/21 05:19:07;;;;;;;29.50;27.70;;;;;;;15.21;72.28;100525.13;4974936;28;20395;-76
2022/10/21 05:21:32;;;;;;;27.95;26.30;;;;;;;15.20;72.55;100511.84;4974959;28;20479;-76
2022/10/21 05:23:58;;;;;;;29.52;27.63;;;;;;;15.19;72.39;100512.91;4974851;28;20385;-75
2022/10/21 05:26:23;;;;;;;27.98;26.33;;;;;;;15.18;72.43;100506.66;4974843;28;20039;-76
2022/10/21 05:28:49;;;;;;;29.85;27.95;;;;;;;15.18;72.67;100508.56;4973635;28;20062;-76
2022/10/21 05:31:14;;;;;;;28.77;26.88;;;;;;;15.18;72.54;100509.38;4975551;28;20035;-76
2022/10/21 05:33:39;;;;;;;28.05;26.13;;;;;;;15.17;72.53;100504.19;4975059;28;20110;-76
2022/10/21 05:36:07;;;;;;;28.50;26.73;;;;;;;15.15;72.52;100491.72;4973428;28;20049;-76
2022/10/21 05:38:33;;;;;;;29.95;27.77;;;;;;;15.14;72.20;100503.69;4975240;28;20035;-76
2022/10/21 05:41:00;;;;;;;27.00;25.40;;;;;;;15.14;72.39;100492.81;4974579;28;20034;-75
2022/10/21 05:43:26;;;;;;;27.40;25.80;;;;;;;15.12;72.74;100488.75;4974742;28;20027;-76
2022/10/21 05:45:52;;;;;;;27.73;26.08;;;;;;;15.13;72.55;100493.06;4974358;28;20087;-76
2022/10/21 05:48:18;;;;;;;27.15;25.17;;;;;;;15.11;72.53;100498.78;4974589;28;20039;-75
2022/10/21 05:50:45;;;;;;;28.67;26.88;;;;;;;15.10;72.21;100489.00;4957324;28;20089;-75
2022/10/21 05:53:11;;;;;;;29.35;27.27;;;;;;;15.10;72.16;100490.94;4974651;28;20126;-76
2022/10/21 05:55:36;;;;;;;28.00;26.13;;;;;;;15.09;72.24;100495.56;4974587;28;20062;-75
2022/10/21 05:58:01;;;;;;;28.05;26.30;;;;;;;15.07;72.26;100489.56;4974746;28;20038;-78
2022/10/21 06:00:27;;;;;;;29.08;27.27;;;;;;;15.06;72.12;100490.66;4974471;28;20550;-76
2022/10/21 06:02:52;;;;;;;27.70;26.00;;;;;;;15.07;72.80;100491.50;4973039;28;20039;-76
2022/10/21 06:05:18;;;;;;;28.45;26.58;;;;;;;15.05;72.38;100494.47;4973545;28;20046;-75
2022/10/21 06:07:43;;;;;;;26.92;25.33;;;;;;;15.05;72.53;100496.38;4957269;28;20034;-76
2022/10/21 06:10:10;;;;;;;27.42;25.33;;;;;;;15.04;72.17;100489.31;4974826;28;20454;-76
2022/10/21 06:12:36;;;;;;;28.98;27.15;;;;;;;15.01;72.37;100493.38;4974371;28;20043;-75
2022/10/21 06:15:02;;;;;;;27.60;25.83;;;;;;;15.01;72.24;100487.94;4974979;28;20034;-76
2022/10/21 06:17:27;;;;;;;26.75;25.15;;;;;;;15.01;72.50;100490.66;4977804;28;20518;-75
2022/10/21 06:19:52;;;;;;;30.08;27.55;;;;;;;15.01;72.23;100487.16;4978375;28;20027;-76
2022/10/21 06:22:18;;;;;;;28.98;27.20;;;;;;;15.01;72.09;100478.97;4976999;28;20038;-76
2022/10/21 06:24:43;;;;;;;28.38;26.48;;;;;;;15.00;71.96;100482.81;4977724;28;20128;-77
2022/10/21 06:27:08;;;;;;;30.02;28.13;;;;;;;14.98;72.09;100480.34;4977742;28;20026;-77
2022/10/21 06:29:34;;;;;;;27.90;26.05;;;;;;;14.98;72.44;100480.34;4978011;28;20121;-77
2022/10/21 06:31:59;;;;;;;27.42;25.75;;;;;;;14.98;71.82;100476.81;4977955;28;20459;-77
2022/10/21 06:34:24;;;;;;;27.58;25.88;;;;;;;14.97;72.03;100472.47;4976630;28;20120;-76
2022/10/21 06:36:50;;;;;;;28.25;26.55;;;;;;;14.96;72.07;100476.28;4977635;28;20081;-77
2022/10/21 06:39:15;;;;;;;29.40;27.35;;;;;;;14.95;72.05;100480.13;4977775;28;20039;-75
2022/10/21 06:41:40;;;;;;;26.15;24.65;;;;;;;14.95;71.67;100483.63;4977866;28;20039;-75
2022/10/21 06:44:06;;;;;;;29.42;27.58;;;;;;;14.93;71.86;100489.34;4977727;28;20130;-75
2022/10/21 06:46:31;;;;;;;28.23;26.52;;;;;;;14.91;71.59;100496.97;4978019;28;20042;-76
2022/10/21 06:48:57;;;;;;;28.67;26.67;;;;;;;14.92;71.56;100500.53;4977706;28;20125;-76
2022/10/21 06:51:23;;;;;;;28.45;26.75;;;;;;;14.90;71.84;100503.50;4977382;28;20035;-76
2022/10/21 06:53:55;;;;;;;27.38;25.83;;;;;;;14.90;71.78;100500.78;4978082;28;20034;-76
2022/10/21 06:56:21;;;;;;;26.65;25.20;;;;;;;14.89;71.94;100503.78;4977439;28;20471;-76
2022/10/21 06:58:48;;;;;;;27.63;25.73;;;;;;;14.89;71.93;100529.09;4977449;28;20085;-76
2022/10/21 07:01:25;;;;;;;32.90;30.02;;;;;;;14.89;71.67;100528.25;4977451;28;20506;-76
2022/10/21 07:03:50;;;;;;;27.73;25.58;;;;;;;14.88;71.67;100523.91;4977474;28;20034;-74
2022/10/21 07:06:16;;;;;;;28.75;26.77;;;;;;;14.88;71.58;100532.06;4976791;28;20050;-75
2022/10/21 07:08:42;;;;;;;28.70;26.63;;;;;;;14.87;71.92;100539.41;4977335;28;20038;-75
2022/10/21 07:11:10;;;;;;;28.92;27.05;;;;;;;14.87;71.82;100544.03;4977034;28;20043;-75
2022/10/21 07:13:36;;;;;;;28.02;26.02;;;;;;;14.87;71.45;100546.75;4977279;28;20027;-75
2022/10/21 07:16:03;;;;;;;27.60;26.00;;;;;;;14.87;71.96;100552.19;4977093;28;20035;-76
2022/10/21 07:18:29;;;;;;;27.35;25.38;;;;;;;14.86;71.71;100550.56;4977160;28;20463;-75
2022/10/21 07:20:55;;;;;;;27.42;25.65;;;;;;;14.85;71.95;100554.38;4976984;28;20045;-75
2022/10/21 07:23:20;;;;;;;28.02;26.27;;;;;;;14.85;71.97;100554.38;4976857;28;20118;-75
2022/10/21 07:25:46;;;;;;;27.35;25.45;;;;;;;14.84;71.93;100547.28;4976887;28;20030;-75
2022/10/21 07:28:11;;;;;;;28.95;27.15;;;;;;;14.84;71.89;100550.00;4974671;28;20042;-75
2022/10/21 07:30:41;;;;;;;27.52;25.85;;;;;;;14.84;71.65;100558.16;4976850;28;20034;-76
2022/10/21 07:33:06;;;;;;;28.45;26.48;;;;;;;14.83;72.06;100556.56;4976960;28;20038;-75
2022/10/21 07:35:32;;;;;;;28.80;26.65;;;;;;;14.83;71.93;100551.94;4977251;28;20035;-76
2022/10/21 07:37:57;;;;;;;29.05;26.90;;;;;;;14.83;71.71;100564.72;4977447;28;20406;-76
2022/10/21 07:40:23;;;;;;;28.02;26.38;;;;;;;14.82;72.12;100572.06;4976640;28;20042;-76
2022/10/21 07:42:48;;;;;;;28.00;26.30;;;;;;;14.82;71.61;100576.69;4976617;28;20058;-76
2022/10/21 07:45:13;;;;;;;27.67;25.70;;;;;;;14.82;71.89;100579.41;4975030;28;20054;-76
2022/10/21 07:47:39;;;;;;;26.77;25.02;;;;;;;14.81;72.00;100572.31;4976817;28;20090;-75
2022/10/21 07:50:04;;;;;;;27.35;25.38;;;;;;;14.81;71.66;100570.41;4976796;28;20093;-77
2022/10/21 07:52:30;;;;;;;27.48;25.55;;;;;;;14.80;71.76;100568.78;4976414;28;20062;-76
2022/10/21 07:54:55;;;;;;;28.17;25.88;;;;;;;14.80;71.87;100576.94;4976140;28;20130;-76
2022/10/21 07:57:21;;;;;;;28.63;26.90;;;;;;;14.80;71.74;100585.13;4976327;28;20035;-76
2022/10/21 07:59:46;;;;;;;27.13;24.85;;;;;;;14.80;71.78;100568.78;4975173;28;20035;-76
2022/10/21 08:02:13;;;;;;;27.17;25.38;;;;;;;14.79;72.04;100575.34;4976523;28;20034;-76
2022/10/21 08:04:39;;;;;;;27.60;25.75;;;;;;;14.79;71.94;100580.78;4975862;28;20515;-75
2022/10/21 08:07:04;;;;;;;28.58;26.55;;;;;;;14.79;71.57;100583.50;4976454;28;20066;-77
2022/10/21 08:09:30;;;;;;;28.88;26.92;;;;;;;14.79;71.77;100582.66;4975152;28;20038;-75
2022/10/21 08:11:56;;;;;;;27.35;25.65;;;;;;;14.79;71.50;100585.38;4976031;28;20510;-75
2022/10/21 08:14:21;;;;;;;30.10;28.02;;;;;;;14.79;71.74;100571.78;4975996;28;20043;-76
2022/10/21 08:16:51;;;;;;;28.77;26.95;;;;;;;14.78;71.83;100581.84;4976340;28;20045;-87
2022/10/21 08:19:20;;;;;;;31.33;28.92;;;;;;;14.79;71.74;100588.09;4976170;28;20053;-73
2022/10/21 08:21:45;;;;;;;30.05;27.77;;;;;;;14.80;71.83;100578.88;4975983;28;20027;-74
2022/10/21 08:24:10;;;;;;;30.20;26.48;;;;;;;14.82;71.92;100582.13;4975903;28;20093;-75
2022/10/21 08:26:36;;;;;;;29.15;26.83;;;;;;;14.85;72.06;100576.13;4975651;28;20045;-73
2022/10/21 08:29:03;;;;;;;29.77;27.75;;;;;;;14.87;72.02;100568.53;4976080;28;20408;-74
2022/10/21 08:31:28;;;;;;;28.55;26.73;;;;;;;14.87;71.72;100571.25;4975635;28;20471;-73
2022/10/21 08:33:54;;;;;;;28.83;26.48;;;;;;;14.86;71.60;100570.41;4975774;28;20081;-74
2022/10/21 08:36:22;;;;;;;27.92;26.13;;;;;;;14.87;71.63;100580.22;4975601;28;20038;-73
2022/10/21 08:38:48;;;;;;;25.85;24.17;;;;;;;14.86;71.61;100594.06;4975334;28;20388;-73
2022/10/21 08:41:34;;;;;;;28.10;26.20;;;;;;;14.86;71.45;100602.22;4975621;28;20089;-75
2022/10/21 08:44:05;;;;;;;27.00;25.20;;;;;;;14.84;71.21;100601.69;4975592;28;20085;-75
2022/10/21 08:46:46;;;;;;;26.77;25.15;;;;;;;14.85;71.54;100603.31;4975057;28;20031;-75
2022/10/21 08:50:03;;;;;;;28.05;25.77;;;;;;;14.84;71.48;100601.69;4975992;28;20027;-75
2022/10/21 08:52:47;;;;;;;26.42;24.35;;;;;;;14.82;71.54;100585.66;4971793;28;20038;-74
2022/10/21 08:55:22;;;;;;;27.92;25.67;;;;;;;14.83;71.65;100595.44;4975612;28;20030;-74
2022/10/21 08:57:49;;;;;;;27.08;25.23;;;;;;;14.83;71.31;100600.88;4975374;28;20026;-73
2022/10/21 09:00:23;;;;;;;25.80;24.27;;;;;;;14.83;71.75;100609.03;4975211;28;20035;-74
2022/10/21 09:03:01;;;;;;;25.40;23.95;;;;;;;14.84;72.01;100613.41;4975194;28;20030;-73
2022/10/21 09:05:51;;;;;;;26.65;24.83;;;;;;;14.84;72.38;100604.41;4975141;28;20043;-73
2022/10/21 09:08:42;;;;;;;26.73;25.23;;;;;;;14.83;72.35;100603.59;4975044;28;20042;-73
2022/10/21 09:11:36;;;;;;;25.42;23.92;;;;;;;14.84;72.76;100601.69;4975391;28;20030;-74
2022/10/21 09:14:20;;;;;;;26.30;24.83;;;;;;;14.84;72.83;100604.41;4975713;28;20098;-74
2022/10/21 09:17:13;;;;;;;26.83;24.92;;;;;;;14.85;73.14;100600.59;4975271;28;20031;-74
2022/10/21 09:20:16;;;;;;;26.20;24.40;;;;;;;14.85;73.40;100606.06;4975400;28;20046;-74
2022/10/21 09:23:18;;;;;;;28.15;25.77;;;;;;;14.84;73.37;100602.53;4975480;28;20027;-74
2022/10/21 09:25:58;;;;;;;28.20;24.98;;;;;;;14.85;73.51;100606.06;4974535;28;20034;-74
2022/10/21 09:28:25;;;;;;;27.25;25.10;;;;;;;14.84;73.57;100605.25;4974551;28;20033;-74
2022/10/21 09:30:52;;;;;;;28.67;26.33;;;;;;;14.85;73.43;100600.59;4975406;28;20057;-75
2022/10/21 09:33:25;;;;;;;28.00;26.00;;;;;;;14.86;73.55;100594.06;4974745;28;20118;-75
2022/10/21 09:36:01;;;;;;;24.60;22.42;;;;;;;14.87;73.89;100598.44;4974830;28;20026;-75
2022/10/21 09:38:31;;;;;;;27.63;25.67;;;;;;;14.87;73.71;100596.53;4974959;28;20035;-74
2022/10/21 09:41:02;;;;;;;29.15;26.63;;;;;;;14.88;73.70;100600.06;4975048;28;20041;-74
2022/10/21 09:43:28;;;;;;;27.55;25.42;;;;;;;14.90;74.17;100600.59;4973971;28;20039;-75
2022/10/21 09:45:55;;;;;;;27.08;25.30;;;;;;;14.91;74.45;100599.50;4974792;28;20451;-75
2022/10/21 09:48:49;;;;;;;28.20;26.48;;;;;;;14.92;74.26;100591.06;4974625;28;20035;-75
2022/10/21 09:51:31;;;;;;;27.65;25.67;;;;;;;14.92;74.21;100599.22;4973179;28;20049;-74
2022/10/21 09:54:03;;;;;;;25.27;23.88;;;;;;;14.94;74.31;100601.66;4980693;28;20069;-74
2022/10/21 09:56:53;;;;;;;26.90;24.90;;;;;;;14.95;74.30;100597.88;4980998;28;20138;-75
2022/10/21 09:59:21;;;;;;;25.60;23.95;;;;;;;14.95;74.29;100600.59;4980006;28;20027;-73
2022/10/21 10:01:47;;;;;;;26.35;24.05;;;;;;;14.97;74.41;100594.84;4981252;28;20046;-75
2022/10/21 10:04:31;;;;;;;27.40;24.92;;;;;;;14.98;74.61;100599.22;4980965;28;20492;-75
2022/10/21 10:07:00;;;;;;;27.45;25.45;;;;;;;14.99;74.89;100600.84;4980637;28;20034;-75
2022/10/21 10:09:26;;;;;;;;;;;;;;;14.99;74.42;100601.66;4981386;28;20058;-74
2022/10/21 10:11:55;;;;;;;26.60;24.25;;;;;;;15.00;74.39;100610.66;4981012;28;20341;-74
2022/10/21 10:14:37;;;;;;;26.08;24.25;;;;;;;15.02;74.54;100609.28;4981806;28;20046;-75
2022/10/21 10:17:27;;;;;;;26.10;24.50;;;;;;;15.04;74.97;100607.06;4981254;28;20030;-73
2022/10/21 10:20:15;;;;;;;26.95;24.63;;;;;;;15.06;74.95;100601.38;4980894;28;20490;-74
2022/10/21 10:22:43;;;;;;;26.40;24.70;;;;;;;15.07;74.49;100613.91;4980983;28;20030;-75
2022/10/21 10:25:22;;;;;;;25.98;24.30;;;;;;;15.07;74.53;100609.28;4981546;28;20023;-75
2022/10/21 10:28:03;;;;;;;25.88;24.27;;;;;;;15.09;74.56;100606.25;4980794;28;20039;-75
2022/10/21 10:30:41;;;;;;;28.13;26.33;;;;;;;15.11;74.20;100618.50;4981256;28;20058;-74
2022/10/21 10:33:09;;;;;;;;;;;;;;;15.12;74.29;100606.53;4981462;28;20101;-74
2022/10/21 10:35:36;;;;;;;27.45;25.52;;;;;;;15.12;73.69;100614.69;4980652;28;20358;-75
2022/10/21 10:38:03;;;;;;;29.13;27.08;;;;;;;15.14;73.65;100617.97;4980410;28;20490;-74
2022/10/21 10:40:38;;;;;;;27.35;25.45;;;;;;;15.17;74.03;100616.59;4980613;28;20057;-75
2022/10/21 10:43:26;;;;;;;30.25;27.52;;;;;;;15.20;74.60;100617.94;4980357;28;20057;-76
2022/10/21 10:46:09;;;;;;;28.40;26.08;;;;;;;15.23;74.79;100609.22;4980702;28;20074;-73
2022/10/21 10:48:48;;;;;;;27.65;25.60;;;;;;;15.24;74.67;100611.66;4981102;28;20030;-74
2022/10/21 10:51:31;;;;;;;26.50;24.52;;;;;;;15.26;74.20;100608.66;4979577;28;20046;-75
2022/10/21 10:54:06;;;;;;;27.23;24.60;;;;;;;15.29;74.03;100605.38;4980522;28;20104;-75
2022/10/21 10:56:52;;;;;;;27.25;25.35;;;;;;;15.30;74.33;100602.41;4980405;28;20035;-74
2022/10/21 10:59:29;;;;;;;26.63;24.25;;;;;;;15.33;74.44;100604.56;4980735;28;20066;-74
2022/10/21 11:02:06;;;;;;;26.38;24.48;;;;;;;15.35;73.92;100601.56;4979528;28;20073;-74
2022/10/21 11:04:41;;;;;;;27.42;25.48;;;;;;;15.36;74.34;100603.19;4977063;28;20039;-75
2022/10/21 11:07:06;;;;;;;26.75;25.30;;;;;;;15.38;73.72;100606.44;4977414;28;20030;-74
2022/10/21 11:09:33;;;;;;;28.10;26.20;;;;;;;15.41;74.18;100610.53;4976969;28;20435;-73
2022/10/21 11:12:04;;;;;;;27.77;25.88;;;;;;;15.43;74.02;100602.91;4977465;28;20435;-74
2022/10/21 11:14:30;;;;;;;29.98;27.85;;;;;;;15.45;73.88;100589.81;4977431;28;20026;-74
2022/10/21 11:17:12;;;;;;;28.55;26.42;;;;;;;15.48;74.59;100592.78;4976635;28;20042;-74
2022/10/21 11:20:09;;;;;;;30.90;27.95;;;;;;;15.49;74.10;100593.59;4977096;28;20031;-74
2022/10/21 11:23:02;;;;;;;28.48;26.77;;;;;;;15.51;73.96;100585.97;4977171;28;20038;-74